Time;durP1;ratioP1;P1;durP2;ratioP2;P2;SDS_P1;SDS_P2;PMS_P1;PMS_P2;Temp;Humidity;BMP_temperature;BMP_pressure;BME280_temperature;BME280_humidity;BME280_pressure;Samples;Min_cycle;Max_cycle;Signal;HPM_P1;HPM_P2
2021/10/25 00:00:46;;;;;;;0.20;0.20;;;5.80;99.90;;;;;;5034509;28;20456;-66
2021/10/25 00:03:12;;;;;;;0.30;0.30;;;5.80;99.90;;;;;;5034109;28;20183;-66
2021/10/25 00:05:38;;;;;;;0.30;0.30;;;5.90;99.90;;;;;;5034469;28;20525;-65
2021/10/25 00:08:04;;;;;;;0.20;0.20;;;6.00;99.90;;;;;;5033006;28;20182;-68
2021/10/25 00:10:30;;;;;;;0.20;0.20;;;6.00;99.90;;;;;;5033589;28;20204;-67
2021/10/25 00:12:55;;;;;;;2.73;2.63;;;6.10;99.90;;;;;;5034762;28;20193;-66
2021/10/25 00:15:21;;;;;;;0.20;0.20;;;6.10;99.90;;;;;;5033505;28;20462;-64
2021/10/25 00:17:46;;;;;;;0.20;0.20;;;6.10;99.90;;;;;;5032854;28;20269;-64
2021/10/25 00:20:13;;;;;;;0.30;0.30;;;6.10;99.90;;;;;;5033593;28;20193;-64
2021/10/25 00:22:39;;;;;;;0.20;0.20;;;6.10;99.90;;;;;;5033755;28;20182;-64
2021/10/25 00:25:05;;;;;;;0.88;0.88;;;6.10;99.90;;;;;;5033673;28;20272;-64
2021/10/25 00:27:31;;;;;;;0.30;0.23;;;6.20;99.90;;;;;;5033688;28;20264;-64
2021/10/25 00:29:56;;;;;;;0.20;0.20;;;6.10;99.90;;;;;;5033359;28;20530;-64
2021/10/25 00:32:22;;;;;;;0.40;0.40;;;6.20;99.90;;;;;;5033682;28;20185;-64
2021/10/25 00:34:48;;;;;;;0.57;0.27;;;6.20;99.90;;;;;;5033853;28;20240;-64
2021/10/25 00:37:13;;;;;;;0.20;0.10;;;6.20;99.90;;;;;;5032712;28;20209;-67
2021/10/25 00:39:39;;;;;;;0.20;0.20;;;6.20;99.90;;;;;;5033359;28;20232;-64
2021/10/25 00:42:04;;;;;;;0.30;0.30;;;6.30;99.90;;;;;;5033435;28;20208;-64
2021/10/25 00:44:31;;;;;;;0.30;0.30;;;6.30;99.90;;;;;;5033760;28;20820;-64
2021/10/25 00:46:58;;;;;;;0.65;0.52;;;6.30;99.90;;;;;;5033484;28;20185;-64
2021/10/25 00:49:24;;;;;;;0.20;0.20;;;6.20;99.90;;;;;;5033168;28;20220;-64
2021/10/25 00:51:51;;;;;;;0.30;0.20;;;6.30;99.90;;;;;;5033482;28;20581;-66
2021/10/25 00:54:17;;;;;;;0.20;0.20;;;6.30;99.90;;;;;;5033608;28;20184;-65
2021/10/25 00:56:44;;;;;;;0.57;0.50;;;6.40;99.90;;;;;;5034016;28;20513;-67
2021/10/25 00:59:11;;;;;;;0.20;0.20;;;6.30;99.90;;;;;;5033164;28;20595;-67
2021/10/25 01:01:37;;;;;;;0.20;0.20;;;6.20;99.90;;;;;;5033614;28;20228;-67
2021/10/25 01:04:03;;;;;;;0.50;0.30;;;6.20;99.90;;;;;;5032306;28;20687;-64
2021/10/25 01:06:29;;;;;;;0.20;0.20;;;6.20;99.90;;;;;;5033507;28;20276;-64
2021/10/25 01:08:56;;;;;;;0.20;0.20;;;6.10;99.90;;;;;;5033092;28;20425;-67
2021/10/25 01:11:24;;;;;;;0.30;0.30;;;6.20;99.90;;;;;;5032207;28;20447;-67
2021/10/25 01:13:50;;;;;;;0.65;0.60;;;6.20;99.90;;;;;;5033246;28;20193;-64
2021/10/25 01:16:16;;;;;;;0.20;0.20;;;6.20;99.90;;;;;;5033171;28;20589;-66
2021/10/25 01:18:41;;;;;;;1.17;1.17;;;6.20;99.90;;;;;;5032939;28;20253;-64
2021/10/25 01:21:08;;;;;;;0.40;0.40;;;6.20;99.90;;;;;;5033293;28;20541;-64
2021/10/25 01:23:34;;;;;;;3.15;1.67;;;6.20;99.90;;;;;;5032107;28;20387;-67
2021/10/25 01:26:00;;;;;;;0.20;0.20;;;6.10;99.90;;;;;;5033080;28;20207;-66
2021/10/25 01:28:25;;;;;;;0.30;0.30;;;6.10;99.90;;;;;;5031994;28;20242;-66
2021/10/25 01:30:51;;;;;;;0.43;0.43;;;6.10;99.90;;;;;;5033237;28;20648;-64
2021/10/25 01:33:17;;;;;;;0.53;0.53;;;6.10;99.90;;;;;;5033278;28;20178;-64
2021/10/25 01:35:43;;;;;;;0.20;0.20;;;6.00;99.90;;;;;;5033457;28;20622;-66
2021/10/25 01:38:09;;;;;;;0.30;0.30;;;6.00;99.90;;;;;;5032740;28;20758;-64
2021/10/25 01:40:35;;;;;;;0.38;0.35;;;6.00;99.90;;;;;;5032891;28;20181;-64
2021/10/25 01:43:02;;;;;;;0.20;0.20;;;6.00;99.90;;;;;;5033149;28;20327;-64
2021/10/25 01:45:28;;;;;;;0.20;0.20;;;6.00;99.90;;;;;;5032994;28;20292;-65
2021/10/25 01:47:54;;;;;;;0.30;0.30;;;6.10;99.90;;;;;;5032914;28;20213;-64
2021/10/25 01:50:21;;;;;;;0.75;0.60;;;6.10;99.90;;;;;;5035380;28;20530;-64
2021/10/25 01:52:47;;;;;;;1.25;1.23;;;6.00;99.90;;;;;;5036501;28;20178;-64
2021/10/25 01:55:13;;;;;;;0.20;0.20;;;6.00;99.90;;;;;;5036367;28;20185;-66
2021/10/25 01:57:38;;;;;;;0.40;0.40;;;6.00;99.90;;;;;;5035359;28;20181;-66
2021/10/25 02:00:05;;;;;;;0.20;0.20;;;6.00;99.90;;;;;;5036331;28;20190;-66
2021/10/25 02:02:30;;;;;;;1.75;0.68;;;6.00;99.90;;;;;;5036299;28;20181;-66
2021/10/25 02:04:56;;;;;;;0.20;0.20;;;5.90;99.90;;;;;;5036750;28;20177;-66
2021/10/25 02:07:21;;;;;;;3.13;1.47;;;5.90;99.90;;;;;;5036721;28;20552;-67
2021/10/25 02:09:47;;;;;;;0.60;0.30;;;5.90;99.90;;;;;;5036010;28;20209;-67
2021/10/25 02:12:13;;;;;;;0.20;0.20;;;5.80;99.90;;;;;;5036119;28;20610;-67
2021/10/25 02:14:39;;;;;;;0.20;0.20;;;5.80;99.90;;;;;;5035235;28;20181;-67
2021/10/25 02:17:04;;;;;;;0.30;0.27;;;5.80;99.90;;;;;;5036123;28;20185;-67
2021/10/25 02:19:32;;;;;;;0.40;0.40;;;5.90;99.90;;;;;;5035738;28;20201;-64
2021/10/25 02:22:00;;;;;;;0.20;0.20;;;5.90;99.90;;;;;;5035884;28;20296;-64
2021/10/25 02:24:25;;;;;;;0.20;0.20;;;5.90;99.90;;;;;;5035951;28;20200;-66
2021/10/25 02:26:51;;;;;;;0.20;0.20;;;5.90;99.90;;;;;;5035848;28;20187;-64
2021/10/25 02:29:17;;;;;;;0.20;0.20;;;5.90;99.90;;;;;;5035639;28;20181;-66
2021/10/25 02:31:43;;;;;;;2.73;2.63;;;5.90;99.90;;;;;;5035696;28;20183;-66
2021/10/25 02:34:08;;;;;;;0.20;0.20;;;5.80;99.90;;;;;;5035641;28;20909;-64
2021/10/25 02:36:34;;;;;;;0.20;0.20;;;5.80;99.90;;;;;;5035675;28;20186;-66
2021/10/25 02:38:59;;;;;;;0.33;0.33;;;5.90;99.90;;;;;;5035297;28;20178;-67
2021/10/25 02:41:25;;;;;;;0.50;0.50;;;5.80;99.90;;;;;;5035738;28;20186;-64
2021/10/25 02:43:51;;;;;;;0.60;0.60;;;5.90;99.90;;;;;;5035840;28;20185;-64
2021/10/25 02:46:16;;;;;;;0.20;0.20;;;5.90;99.90;;;;;;5035752;28;20490;-65
2021/10/25 02:48:43;;;;;;;2.47;2.33;;;5.90;99.90;;;;;;5035242;28;20208;-65
2021/10/25 02:51:09;;;;;;;0.30;0.30;;;5.90;99.90;;;;;;5035271;28;20228;-64
2021/10/25 02:53:35;;;;;;;0.67;0.67;;;5.90;99.90;;;;;;5034272;28;20181;-66
2021/10/25 02:56:00;;;;;;;0.20;0.20;;;5.90;99.90;;;;;;5035399;28;20456;-65
2021/10/25 02:58:26;;;;;;;0.20;0.20;;;5.90;99.90;;;;;;5035158;28;20332;-67
2021/10/25 03:00:52;;;;;;;0.20;0.20;;;6.00;99.90;;;;;;5034247;28;20186;-65
2021/10/25 03:03:17;;;;;;;0.23;0.20;;;6.00;99.90;;;;;;5035230;28;20182;-65
2021/10/25 03:05:44;;;;;;;0.20;0.20;;;6.10;99.90;;;;;;5035219;28;20263;-65
2021/10/25 03:08:09;;;;;;;0.30;0.20;;;6.10;99.90;;;;;;5033701;28;20177;-67
2021/10/25 03:10:35;;;;;;;0.20;0.20;;;6.20;99.90;;;;;;5034968;28;20292;-67
2021/10/25 03:13:01;;;;;;;0.20;0.20;;;6.20;99.90;;;;;;5034927;28;20189;-67
2021/10/25 03:15:27;;;;;;;0.20;0.20;;;6.30;99.90;;;;;;5035180;28;20243;-67
2021/10/25 03:17:53;;;;;;;0.20;0.20;;;6.30;99.90;;;;;;5034799;28;20530;-67
2021/10/25 03:20:19;;;;;;;0.50;0.50;;;6.20;99.90;;;;;;5034714;28;20182;-67
2021/10/25 03:22:45;;;;;;;0.20;0.20;;;6.20;99.90;;;;;;5034751;28;20856;-67
2021/10/25 03:25:10;;;;;;;0.20;0.20;;;6.20;99.90;;;;;;5033796;28;20177;-64
2021/10/25 03:27:37;;;;;;;0.37;0.30;;;6.10;99.90;;;;;;5034797;28;20193;-68
2021/10/25 03:30:05;;;;;;;0.30;0.30;;;6.10;99.90;;;;;;5034304;28;20209;-67
2021/10/25 03:32:30;;;;;;;0.50;0.50;;;6.10;99.90;;;;;;5034675;28;20177;-66
2021/10/25 03:34:56;;;;;;;0.30;0.30;;;6.20;99.90;;;;;;5034535;28;20514;-64
2021/10/25 03:37:22;;;;;;;0.20;0.20;;;6.20;99.90;;;;;;5034913;28;20178;-64
2021/10/25 03:39:50;;;;;;;0.20;0.20;;;6.20;99.90;;;;;;5034289;28;20588;-67
2021/10/25 03:42:25;;;;;;;0.20;0.20;;;6.20;99.90;;;;;;5034489;28;20188;-64
2021/10/25 03:45:02;;;;;;;0.20;0.20;;;6.30;99.90;;;;;;5034421;28;20181;-64
2021/10/25 03:47:33;;;;;;;0.20;0.20;;;6.30;99.90;;;;;;5034224;28;20185;-65
2021/10/25 03:50:09;;;;;;;0.30;0.20;;;6.30;99.90;;;;;;5034077;28;20209;-66
2021/10/25 03:55:25;;;;;;;0.20;0.20;;;6.20;99.90;;;;;;5034502;28;20177;-66
2021/10/25 04:03:43;;;;;;;0.20;0.20;;;6.10;99.90;;;;;;5034862;28;20686;-67
2021/10/25 04:28:11;;;;;;;0.20;0.20;;;5.70;99.90;;;;;;5033968;28;20227;-65
2021/10/25 04:30:37;;;;;;;0.20;0.20;;;5.60;99.90;;;;;;5033552;28;20208;-64
2021/10/25 04:33:04;;;;;;;0.20;0.20;;;5.50;99.90;;;;;;5033663;28;20201;-67
2021/10/25 04:35:29;;;;;;;0.20;0.20;;;5.50;99.90;;;;;;5034111;28;20209;-64
2021/10/25 04:37:56;;;;;;;0.20;0.20;;;5.50;99.90;;;;;;5032903;28;20572;-67
2021/10/25 04:40:22;;;;;;;0.30;0.30;;;5.50;99.90;;;;;;5032775;28;20182;-67
2021/10/25 04:42:48;;;;;;;0.20;0.20;;;5.40;99.90;;;;;;5032565;28;20268;-67
2021/10/25 04:45:16;;;;;;;0.20;0.20;;;5.50;99.90;;;;;;5033626;28;20347;-66
2021/10/25 04:47:41;;;;;;;0.20;0.20;;;5.40;99.90;;;;;;5033725;28;20192;-65
2021/10/25 04:50:07;;;;;;;0.20;0.20;;;5.60;99.90;;;;;;5033199;28;20209;-66
2021/10/25 04:52:33;;;;;;;0.20;0.20;;;5.60;99.90;;;;;;5033311;28;20227;-66
2021/10/25 04:54:58;;;;;;;0.30;0.30;;;5.60;99.90;;;;;;5033575;28;20949;-66
2021/10/25 04:57:24;;;;;;;0.20;0.20;;;5.50;99.90;;;;;;5033520;28;20181;-66
2021/10/25 04:59:50;;;;;;;0.60;0.60;;;5.50;99.90;;;;;;5033181;28;20188;-66
2021/10/25 05:02:16;;;;;;;0.20;0.20;;;5.50;99.90;;;;;;5033394;28;20515;-66
2021/10/25 05:04:41;;;;;;;0.20;0.20;;;5.40;99.90;;;;;;5033345;28;20208;-67
2021/10/25 05:07:07;;;;;;;0.30;0.20;;;5.40;99.90;;;;;;5032410;28;20671;-66
2021/10/25 05:09:33;;;;;;;0.30;0.20;;;5.30;99.90;;;;;;5033050;28;20530;-67
2021/10/25 05:11:59;;;;;;;0.20;0.20;;;5.40;99.90;;;;;;5033086;28;20185;-66
2021/10/25 05:14:25;;;;;;;1.58;1.42;;;5.40;99.90;;;;;;5032339;28;20607;-67
2021/10/25 05:16:50;;;;;;;0.20;0.20;;;5.30;99.90;;;;;;5033145;28;20174;-64
2021/10/25 05:19:16;;;;;;;0.70;0.70;;;5.30;99.90;;;;;;5032760;28;20173;-65
2021/10/25 05:21:41;;;;;;;0.20;0.20;;;5.30;99.90;;;;;;5033241;28;20193;-64
2021/10/25 05:24:07;;;;;;;1.90;1.80;;;5.40;99.90;;;;;;5035650;28;20177;-68
2021/10/25 05:26:33;;;;;;;0.50;0.50;;;5.30;99.90;;;;;;5036662;28;20188;-65
2021/10/25 05:28:58;;;;;;;0.20;0.20;;;5.30;99.90;;;;;;5036690;28;20485;-65
2021/10/25 05:31:24;;;;;;;0.20;0.17;;;5.30;99.90;;;;;;5036652;28;20888;-65
2021/10/25 05:33:51;;;;;;;0.20;0.20;;;5.30;99.90;;;;;;5036501;28;20173;-65
2021/10/25 05:36:17;;;;;;;0.20;0.20;;;5.30;99.90;;;;;;5036439;28;20181;-65
2021/10/25 05:38:42;;;;;;;0.20;0.20;;;5.20;99.90;;;;;;5036051;28;20521;-65
2021/10/25 05:41:13;;;;;;;0.20;0.20;;;5.30;99.90;;;;;;5036457;28;20436;-65
2021/10/25 05:43:40;;;;;;;0.20;0.20;;;5.30;99.90;;;;;;5036422;28;20514;-65
2021/10/25 05:46:05;;;;;;;0.20;0.20;;;5.20;99.90;;;;;;5036426;28;20602;-65
2021/10/25 05:48:34;;;;;;;0.20;0.20;;;5.30;99.90;;;;;;5035841;28;20190;-65
2021/10/25 05:51:02;;;;;;;0.30;0.30;;;5.30;99.90;;;;;;5036189;28;20224;-65
2021/10/25 05:53:28;;;;;;;0.20;0.20;;;5.10;99.90;;;;;;5035791;28;20177;-68
2021/10/25 05:55:54;;;;;;;0.20;0.20;;;5.10;99.90;;;;;;5036229;28;20614;-68
2021/10/25 05:58:21;;;;;;;0.20;0.20;;;5.10;99.90;;;;;;5035891;28;20896;-68
2021/10/25 06:00:57;;;;;;;0.20;0.20;;;5.10;99.90;;;;;;5036119;28;20215;-68
2021/10/25 06:03:24;;;;;;;0.30;0.30;;;5.10;99.90;;;;;;5036032;28;20203;-68
2021/10/25 06:05:50;;;;;;;0.40;0.40;;;5.00;99.90;;;;;;5035728;28;20224;-68
2021/10/25 06:08:17;;;;;;;0.20;0.20;;;5.00;99.90;;;;;;5030928;28;20181;-68
2021/10/25 06:10:43;;;;;;;0.20;0.20;;;5.00;99.90;;;;;;5036108;28;20210;-68
2021/10/25 06:13:12;;;;;;;0.20;0.20;;;5.00;99.90;;;;;;5035975;28;20518;-68
2021/10/25 06:15:39;;;;;;;0.20;0.20;;;4.90;99.90;;;;;;5036051;28;20766;-68
2021/10/25 06:18:08;;;;;;;0.20;0.20;;;5.00;99.90;;;;;;5034725;28;20599;-68
2021/10/25 06:20:37;;;;;;;0.20;0.20;;;5.00;99.90;;;;;;5035448;28;20193;-68
2021/10/25 06:23:08;;;;;;;0.20;0.20;;;5.00;99.90;;;;;;5036137;28;20208;-68
2021/10/25 06:25:34;;;;;;;0.30;0.30;;;5.10;99.90;;;;;;5035521;28;20181;-68
2021/10/25 06:27:59;;;;;;;0.20;0.20;;;5.20;99.90;;;;;;5035242;28;20243;-69
2021/10/25 06:30:25;;;;;;;0.20;0.20;;;5.20;99.90;;;;;;5035158;28;20209;-70
2021/10/25 06:32:51;;;;;;;0.20;0.20;;;5.40;99.90;;;;;;5034252;28;20178;-68
2021/10/25 06:35:22;;;;;;;0.20;0.20;;;5.50;99.90;;;;;;5035887;28;20536;-71
2021/10/25 06:38:06;;;;;;;0.20;0.20;;;5.40;99.90;;;;;;5018535;28;20558;-70
2021/10/25 06:40:32;;;;;;;0.93;0.85;;;5.20;99.90;;;;;;5035949;28;20516;-67
2021/10/25 06:42:57;;;;;;;0.73;0.73;;;5.20;99.90;;;;;;5035299;28;20192;-67
2021/10/25 06:45:24;;;;;;;0.20;0.20;;;5.10;99.90;;;;;;5035019;28;20192;-67
2021/10/25 06:47:51;;;;;;;0.45;0.45;;;5.10;99.90;;;;;;5033895;28;20201;-66
2021/10/25 06:50:19;;;;;;;1.10;0.55;;;5.10;99.90;;;;;;5042595;28;20205;-66
2021/10/25 06:52:45;;;;;;;0.65;0.65;;;5.10;99.90;;;;;;5041508;28;20524;-65
2021/10/25 06:55:11;;;;;;;0.40;0.40;;;5.10;99.90;;;;;;5034899;28;20182;-65
2021/10/25 06:57:36;;;;;;;0.20;0.20;;;5.20;99.90;;;;;;5054233;28;20192;-65
2021/10/25 07:00:08;;;;;;;0.30;0.30;;;5.30;99.90;;;;;;5039578;28;20186;-65
2021/10/25 07:02:35;;;;;;;0.70;0.65;;;5.30;99.90;;;;;;5034715;28;20207;-67
2021/10/25 07:05:02;;;;;;;0.30;0.20;;;5.30;99.90;;;;;;5044724;28;20257;-67
2021/10/25 07:07:28;;;;;;;0.30;0.30;;;5.40;99.90;;;;;;5035856;28;20182;-66
2021/10/25 07:09:56;;;;;;;2.55;0.90;;;5.30;99.90;;;;;;5016668;28;20213;-66
2021/10/25 07:12:26;;;;;;;0.68;0.68;;;5.20;99.90;;;;;;5034239;28;20272;-67
2021/10/25 07:14:55;;;;;;;0.20;0.20;;;5.30;99.90;;;;;;5034714;28;20316;-68
2021/10/25 07:17:48;;;;;;;1.15;1.15;;;5.20;99.90;;;;;;5034307;28;20178;-64
2021/10/25 07:20:23;;;;;;;1.02;1.02;;;5.30;99.90;;;;;;5014581;28;20182;-65
2021/10/25 08:06:48;;;;;;;0.20;0.20;;;6.80;99.90;;;;;;5034028;28;20184;-69
2021/10/25 08:11:58;;;;;;;0.20;0.20;;;7.10;99.90;;;;;;5034102;28;20280;-65
2021/10/25 08:14:31;;;;;;;0.20;0.20;;;7.20;99.90;;;;;;5034144;28;20173;-65
2021/10/25 08:16:57;;;;;;;0.77;0.57;;;7.20;99.90;;;;;;5033483;28;20626;-66
2021/10/25 08:19:24;;;;;;;0.20;0.20;;;7.30;99.90;;;;;;5033144;28;20526;-66
2021/10/25 08:21:54;;;;;;;3.97;1.85;;;7.40;99.90;;;;;;5033276;28;20603;-66
2021/10/25 08:24:21;;;;;;;0.73;0.47;;;7.60;99.90;;;;;;5033083;28;20193;-66
2021/10/25 08:26:47;;;;;;;1.75;1.20;;;7.60;94.80;;;;;;5033558;28;20320;-68
2021/10/25 08:29:15;;;;;;;0.57;0.57;;;7.90;85.40;;;;;;5033225;28;20642;-66
2021/10/25 08:31:42;;;;;;;0.88;0.30;;;8.00;45.00;;;;;;5033516;28;20182;-66
2021/10/25 08:42:22;;;;;;;1.55;1.45;;;8.60;1.00;;;;;;5033005;28;20233;-68
2021/10/25 08:44:57;;;;;;;0.63;0.63;;;8.70;1.00;;;;;;5033098;28;20192;-68
2021/10/25 08:47:28;;;;;;;0.20;0.20;;;8.70;1.00;;;;;;5033091;28;20613;-66
2021/10/25 08:49:56;;;;;;;0.43;0.40;;;8.70;1.00;;;;;;5016248;28;20298;-66
2021/10/25 08:52:23;;;;;;;0.30;0.22;;;8.90;1.00;;;;;;5033355;28;20179;-67
2021/10/25 08:54:51;;;;;;;0.30;0.20;;;9.10;1.00;;;;;;5032976;28;20256;-67
2021/10/25 08:57:18;;;;;;;0.20;0.20;;;9.10;1.00;;;;;;5036881;28;20217;-67
2021/10/25 08:59:55;;;;;;;0.28;0.25;;;9.10;1.00;;;;;;5056570;28;20238;-64
2021/10/25 09:02:21;;;;;;;2.15;1.05;;;9.20;1.00;;;;;;5052377;28;20204;-67
2021/10/25 09:04:57;;;;;;;0.50;0.50;;;9.20;1.00;;;;;;5033860;28;20200;-68
2021/10/25 09:07:23;;;;;;;0.28;0.20;;;9.40;1.00;;;;;;5036887;28;20179;-67
2021/10/25 09:09:48;;;;;;;1.33;1.33;;;9.50;1.00;;;;;;5036589;28;20236;-68
2021/10/25 09:12:15;;;;;;;0.20;0.20;;;9.60;1.00;;;;;;5036456;28;20670;-65
2021/10/25 09:14:41;;;;;;;0.30;0.20;;;9.70;1.00;;;;;;5018435;28;20200;-71
2021/10/25 09:17:09;;;;;;;1.40;1.30;;;9.90;1.00;;;;;;5035673;28;20201;-67
2021/10/25 09:19:37;;;;;;;0.30;0.30;;;10.10;99.90;;;;;;5035521;28;20193;-66
2021/10/25 09:22:12;;;;;;;0.20;0.10;;;10.30;99.90;;;;;;5035198;28;20213;-66
2021/10/25 09:24:38;;;;;;;0.38;0.38;;;10.40;99.90;;;;;;5035330;28;20268;-66
2021/10/25 09:27:07;;;;;;;0.30;0.20;;;10.50;99.90;;;;;;5034546;28;20641;-65
2021/10/25 09:29:37;;;;;;;0.30;0.20;;;10.50;99.90;;;;;;5033378;28;20267;-65
2021/10/25 09:32:14;;;;;;;0.80;0.73;;;10.60;99.90;;;;;;5033809;28;20256;-65
2021/10/25 09:34:50;;;;;;;0.70;0.70;;;10.90;99.90;;;;;;5035563;28;20177;-65
2021/10/25 09:37:21;;;;;;;1.20;0.63;;;11.00;27.40;;;;;;5035508;28;20533;-67
2021/10/25 09:39:53;;;;;;;0.45;0.40;;;11.10;1.00;;;;;;5034954;28;20817;-66
2021/10/25 09:42:49;;;;;;;1.50;1.45;;;11.30;1.00;;;;;;5033536;28;20193;-65
2021/10/25 09:45:29;;;;;;;0.75;0.70;;;11.50;1.00;;;;;;5033629;28;20200;-66
2021/10/25 09:49:02;;;;;;;0.30;0.25;;;11.40;1.00;;;;;;5035359;28;20200;-65
2021/10/25 09:50:56;;;;;;;1.55;1.10;;;11.40;1.00;;;;;;5034796;28;20313;-66
2021/10/25 09:53:34;;;;;;;0.30;0.20;;;11.50;1.00;;;;;;5035041;28;20272;-65
2021/10/25 09:56:01;;;;;;;2.80;2.60;;;11.60;1.00;;;;;;5028133;28;20646;-65
2021/10/25 09:58:38;;;;;;;0.50;0.35;;;11.60;99.90;;;;;;5017139;28;20610;-65
2021/10/25 10:01:04;;;;;;;0.30;0.20;;;11.60;99.90;;;;;;5035459;28;20535;-66
2021/10/25 10:03:30;;;;;;;0.30;0.20;;;11.70;99.90;;;;;;5035426;28;20177;-66
2021/10/25 10:05:59;;;;;;;0.50;0.40;;;11.90;99.90;;;;;;5035005;28;20264;-65
2021/10/25 10:08:25;;;;;;;0.60;0.50;;;11.80;99.90;;;;;;5034519;28;20193;-64
2021/10/25 10:10:53;;;;;;;0.73;0.60;;;11.70;99.90;;;;;;5035240;28;20212;-65
2021/10/25 10:13:22;;;;;;;0.40;0.37;;;11.60;1.00;;;;;;4987684;28;1365968;-65
2021/10/25 10:15:49;;;;;;;6.35;2.38;;;11.90;1.00;;;;;;5036363;28;20208;-66
2021/10/25 10:18:27;;;;;;;0.45;0.45;;;12.20;99.90;;;;;;5034984;28;20320;-66
2021/10/25 10:20:58;;;;;;;0.30;0.20;;;12.10;99.90;;;;;;5035064;28;20189;-66
2021/10/25 10:23:24;;;;;;;1.02;1.02;;;12.30;99.90;;;;;;5033332;28;20204;-66
2021/10/25 10:25:54;;;;;;;0.30;0.20;;;12.40;99.90;;;;;;5035435;28;20630;-67
2021/10/25 10:28:35;;;;;;;0.30;0.20;;;12.60;1.00;;;;;;5035091;28;20201;-66
2021/10/25 10:31:11;;;;;;;0.30;0.20;;;12.70;1.00;;;;;;5035451;28;20208;-67
2021/10/25 10:33:47;;;;;;;0.93;0.93;;;12.80;99.90;;;;;;5025428;28;20211;-70
2021/10/25 10:36:21;;;;;;;2.10;1.20;;;12.60;99.90;;;;;;5032463;28;20176;-68
2021/10/25 10:39:06;;;;;;;1.15;0.85;;;12.60;1.00;;;;;;5034814;28;20181;-68
2021/10/25 10:41:49;;;;;;;0.30;0.20;;;12.30;98.30;;;;;;5038082;28;20196;-68
2021/10/25 10:44:18;;;;;;;0.30;0.20;;;12.40;99.90;;;;;;5036394;28;20186;-70
2021/10/25 10:47:13;;;;;;;0.40;0.40;;;12.80;91.80;;;;;;5039930;28;20257;-69
2021/10/25 10:49:47;;;;;;;0.30;0.20;;;13.30;44.80;;;;;;5034339;28;20209;-69
2021/10/25 10:52:42;;;;;;;0.30;0.20;;;13.60;1.00;;;;;;5018417;28;20185;-68
2021/10/25 10:55:17;;;;;;;0.40;0.38;;;13.70;1.00;;;;;;5019342;28;20578;-69
2021/10/25 11:00:25;;;;;;;0.30;0.20;;;14.10;1.00;;;;;;5036035;28;20185;-69
2021/10/25 11:02:55;;;;;;;0.30;0.10;;;14.30;31.50;;;;;;5035611;28;20201;-69
2021/10/25 11:05:34;;;;;;;0.95;0.95;;;14.50;99.90;;;;;;5034823;28;20177;-69
2021/10/25 11:08:11;;;;;;;1.38;1.27;;;14.70;1.00;;;;;;5016734;28;20188;-69
2021/10/25 11:10:40;;;;;;;0.40;0.20;;;14.80;99.90;;;;;;5014724;28;20304;-68
2021/10/25 11:13:22;;;;;;;0.55;0.45;;;14.20;1.00;;;;;;5014574;28;20267;-68
2021/10/25 11:16:07;;;;;;;0.73;0.65;;;14.10;99.90;;;;;;5027370;28;20212;-68
2021/10/25 11:18:35;;;;;;;0.98;0.88;;;13.80;99.90;;;;;;5034267;28;20241;-68
2021/10/25 11:21:17;;;;;;;0.40;0.35;;;14.20;99.90;;;;;;5032201;28;20280;-69
2021/10/25 11:23:47;;;;;;;0.40;0.20;;;14.70;99.90;;;;;;5034386;28;20220;-68
2021/10/25 11:26:23;;;;;;;0.50;0.47;;;14.90;1.00;;;;;;5034347;28;20178;-68
2021/10/25 11:29:39;;;;;;;0.38;0.20;;;14.80;1.00;;;;;;5034127;28;20180;-68
2021/10/25 11:32:10;;;;;;;0.40;0.20;;;15.20;1.00;;;;;;5030881;28;20201;-70
2021/10/25 11:34:39;;;;;;;0.40;0.17;;;15.80;1.00;;;;;;5034310;28;20276;-69
2021/10/25 11:37:11;;;;;;;0.50;0.30;;;15.80;99.90;;;;;;5034132;28;20261;-69
2021/10/25 11:40:05;;;;;;;1.92;1.83;;;15.30;1.00;;;;;;5016479;28;20180;-69
2021/10/25 11:42:38;;;;;;;0.40;0.17;;;14.60;1.00;;;;;;5033720;28;20181;-67
2021/10/25 11:45:11;;;;;;;0.68;0.60;;;14.10;1.00;;;;;;5033468;28;20254;-67
2021/10/25 11:47:43;;;;;;;0.50;0.47;;;13.90;1.00;;;;;;5033922;28;20568;-67
2021/10/25 11:50:28;;;;;;;0.60;0.57;;;13.90;82.50;;;;;;5033633;28;20205;-68
2021/10/25 11:53:00;;;;;;;0.85;0.50;;;14.00;1.00;;;;;;5033846;28;20169;-69
2021/10/25 11:55:31;;;;;;;0.38;0.17;;;13.90;99.90;;;;;;5034054;28;20177;-68
2021/10/25 11:58:04;;;;;;;0.40;0.20;;;14.10;1.00;;;;;;5033473;28;20629;-70
2021/10/25 12:00:31;;;;;;;0.30;0.15;;;14.20;1.00;;;;;;5034078;28;20185;-70
2021/10/25 12:03:08;;;;;;;0.30;0.17;;;14.40;1.00;;;;;;5030045;28;20236;-68
2021/10/25 12:05:34;;;;;;;0.40;0.40;;;14.10;99.90;;;;;;5028889;28;20181;-68
2021/10/25 12:08:00;;;;;;;0.93;0.50;;;14.40;1.00;;;;;;5030110;28;20274;-68
2021/10/25 12:10:28;;;;;;;1.52;1.45;;;14.00;1.00;;;;;;5031830;28;21057;-68
2021/10/25 12:13:00;;;;;;;15.40;2.75;;;13.90;1.00;;;;;;5032204;28;20205;-66
2021/10/25 12:15:28;;;;;;;0.73;0.68;;;13.80;88.00;;;;;;5032992;28;20262;-66
2021/10/25 12:18:08;;;;;;;0.50;0.40;;;13.70;1.00;;;;;;5032862;28;20227;-71
2021/10/25 12:20:39;;;;;;;0.30;0.20;;;13.70;99.90;;;;;;5016622;28;20181;-70
2021/10/25 12:23:09;;;;;;;1.23;1.23;;;13.90;99.90;;;;;;5033501;28;20213;-70
2021/10/25 12:25:37;;;;;;;0.40;0.20;;;13.90;1.00;;;;;;5015729;28;20199;-70
2021/10/25 12:28:23;;;;;;;0.43;0.32;;;14.20;1.00;;;;;;5031515;28;20184;-70
2021/10/25 12:30:52;;;;;;;0.40;0.20;;;14.30;99.90;;;;;;5032566;28;20327;-69
2021/10/25 12:33:22;;;;;;;0.30;0.20;;;14.20;1.00;;;;;;5016171;28;20569;-69
2021/10/25 12:35:49;;;;;;;0.30;0.20;;;14.00;99.90;;;;;;5033548;28;20221;-70
2021/10/25 12:38:20;;;;;;;2.17;1.10;;;13.90;1.00;;;;;;5033274;28;20188;-68
2021/10/25 12:40:54;;;;;;;0.40;0.30;;;13.50;1.00;;;;;;5033433;28;20256;-71
2021/10/25 12:43:21;;;;;;;0.40;0.38;;;13.30;64.20;;;;;;5031274;28;20283;-69
2021/10/25 12:45:58;;;;;;;0.75;0.70;;;13.30;99.90;;;;;;5033756;28;20225;-68
2021/10/25 12:48:25;;;;;;;1.33;0.40;;;13.40;99.90;;;;;;5030216;28;20622;-69
2021/10/25 12:51:03;;;;;;;0.80;0.50;;;13.20;99.90;;;;;;5033770;28;20197;-70
2021/10/25 12:53:45;;;;;;;0.30;0.20;;;13.10;99.90;;;;;;5029256;28;20556;-67
2021/10/25 12:56:11;;;;;;;0.93;0.88;;;13.30;99.90;;;;;;5003930;28;20181;-66
2021/10/25 12:58:37;;;;;;;0.30;0.20;;;13.20;99.90;;;;;;5051570;28;20200;-65
2021/10/25 13:01:10;;;;;;;0.70;0.60;;;13.10;99.90;;;;;;5045938;28;20216;-69
2021/10/25 13:03:35;;;;;;;2.30;1.48;;;13.10;99.90;;;;;;5039840;28;20192;-70
2021/10/25 13:06:08;;;;;;;0.30;0.10;;;13.00;99.90;;;;;;5023781;28;20220;-66
2021/10/25 13:08:35;;;;;;;0.82;0.52;;;13.20;99.90;;;;;;5046472;28;20307;-70
2021/10/25 13:11:01;;;;;;;0.80;0.65;;;13.20;99.90;;;;;;5033321;28;20239;-67
2021/10/25 13:13:32;;;;;;;0.52;0.52;;;13.20;99.90;;;;;;5032939;28;20195;-67
2021/10/25 13:15:58;;;;;;;0.68;0.68;;;13.10;99.90;;;;;;5015451;28;20197;-65
2021/10/25 13:18:23;;;;;;;0.70;0.70;;;13.20;99.90;;;;;;5032858;28;20182;-70
2021/10/25 13:20:49;;;;;;;3.90;2.13;;;13.00;99.90;;;;;;5033083;28;20501;-72
2021/10/25 13:23:15;;;;;;;0.40;0.30;;;12.80;1.00;;;;;;5015234;28;20239;-69
2021/10/25 13:25:42;;;;;;;0.90;0.67;;;12.70;1.00;;;;;;5033701;28;20182;-68
2021/10/25 13:28:09;;;;;;;0.30;0.20;;;12.80;1.00;;;;;;5032842;28;20177;-68
2021/10/25 13:30:36;;;;;;;0.93;0.82;;;12.80;1.00;;;;;;5032338;28;20270;-68
2021/10/25 13:33:02;;;;;;;0.77;0.77;;;12.90;1.00;;;;;;5015316;28;20259;-68
2021/10/25 13:35:28;;;;;;;0.30;0.20;;;13.00;1.00;;;;;;5032940;28;20186;-67
2021/10/25 13:37:55;;;;;;;1.15;0.57;;;13.20;1.00;;;;;;5033121;28;20187;-67
2021/10/25 13:40:29;;;;;;;0.30;0.17;;;13.40;99.90;;;;;;5033002;28;20200;-67
2021/10/25 13:42:57;;;;;;;2.08;1.55;;;13.70;99.90;;;;;;5032099;28;20181;-66
2021/10/25 13:45:23;;;;;;;6.30;1.02;;;13.60;99.90;;;;;;5035812;28;20190;-66
2021/10/25 13:47:49;;;;;;;0.40;0.40;;;13.50;99.90;;;;;;5036197;28;20702;-70
2021/10/25 13:50:15;;;;;;;1.08;0.30;;;13.50;99.90;;;;;;5018553;28;20211;-69
2021/10/25 13:52:41;;;;;;;0.82;0.38;;;13.60;99.90;;;;;;5018739;28;20272;-68
2021/10/25 13:55:07;;;;;;;0.30;0.20;;;13.60;99.90;;;;;;5036036;28;20276;-69
2021/10/25 13:57:41;;;;;;;1.15;1.05;;;13.70;99.90;;;;;;5035846;28;20630;-69
2021/10/25 14:00:10;;;;;;;0.40;0.40;;;13.50;99.90;;;;;;5033810;28;20504;-68
2021/10/25 14:02:36;;;;;;;0.50;0.47;;;13.50;99.90;;;;;;5026091;28;20714;-68
2021/10/25 14:05:04;;;;;;;0.40;0.35;;;13.40;99.90;;;;;;5033959;28;20515;-66
2021/10/25 14:07:34;;;;;;;0.50;0.30;;;13.60;99.90;;;;;;5018668;28;20240;-67
2021/10/25 14:10:10;;;;;;;0.50;0.43;;;13.70;99.90;;;;;;5029639;28;20243;-69
2021/10/25 14:12:37;;;;;;;0.30;0.20;;;13.60;99.90;;;;;;5035957;28;20211;-67
2021/10/25 14:17:46;;;;;;;0.30;0.20;;;13.40;1.00;;;;;;5035838;28;20221;-72
2021/10/25 14:20:13;;;;;;;0.40;0.32;;;13.10;1.00;;;;;;5035412;28;20253;-67
2021/10/25 14:22:39;;;;;;;0.43;0.40;;;13.20;1.00;;;;;;5035735;28;20525;-69
2021/10/25 14:25:05;;;;;;;0.30;0.20;;;13.30;1.00;;;;;;5035571;28;20185;-67
2021/10/25 14:27:36;;;;;;;0.30;0.20;;;13.60;1.00;;;;;;5032343;28;20255;-71
2021/10/25 14:30:03;;;;;;;0.30;0.20;;;13.60;1.00;;;;;;5027704;28;20189;-67
2021/10/25 14:32:29;;;;;;;0.30;0.10;;;13.70;1.00;;;;;;5035784;28;20181;-69
2021/10/25 14:34:55;;;;;;;0.40;0.30;;;13.70;1.00;;;;;;5035306;28;20331;-69